Suehiro Maru No.8 — JK5423 — position and weather

sailwx.info

Track history (hours):
 
Tides and Currents Weather Stations Pressure Air Temp Water Temp Dewpoint Dewpoint Depression Visibility Wind Speed Wind Dir Waves Ship Positions

Suehiro Maru No.8

Last reported at 2014-Nov-20 02:22 UTC. Time now 2014-Nov-23 03:38 UTC.
Position N 34°07' E 134°46'.

Length 88 m; draft 3.8 m.

Type: Cargo ship. MMSI: 431400446.

Date/timePositionNaut miles runAvg speedWind from/ knotsBaromVisibWave heightAir tempDewpointWater temp
2014-Nov-20 02:22N 34°07' E 134°46'  
2014-Nov-16 23:11N 33°59' E 135°02'812.5
2014-Nov-16 22:33N 34°07' E 135°03'9 8.7
2014-Nov-16 21:33N 34°15' E 135°07'0 0.0
2014-Nov-16 20:33N 34°15' E 135°07'0 0.0
2014-Nov-16 19:33N 34°15' E 135°07'0 0.0
2014-Nov-16 18:32N 34°15' E 135°07'0 0.0
2014-Nov-16 17:33N 34°15' E 135°07'0 0.0
2014-Nov-16 16:33N 34°15' E 135°07'0 0.0
2014-Nov-16 15:34N 34°15' E 135°07'0 0.0
2014-Nov-16 14:33N 34°15' E 135°07'0 0.0
2014-Nov-16 13:33N 34°15' E 135°07'0 0.0
2014-Nov-16 12:33N 34°15' E 135°07'0 0.0
2014-Nov-16 11:33N 34°15' E 135°07'0 0.0
2014-Nov-16 10:33N 34°15' E 135°07'0 0.0
2014-Nov-16 09:33N 34°15' E 135°07'0 0.0
2014-Nov-16 08:33N 34°15' E 135°07'0 0.0
2014-Nov-16 07:33N 34°15' E 135°07'0 0.0
2014-Nov-16 06:33N 34°15' E 135°07'0 0.3
2014-Nov-16 05:33N 34°14' E 135°07'0 0.2
2014-Nov-16 04:33N 34°14' E 135°07'0 0.0
2014-Nov-16 03:33N 34°14' E 135°07'0 0.0
2014-Nov-16 02:33N 34°14' E 135°07'0 0.0
2014-Nov-16 01:33N 34°14' E 135°07'0 0.0
2014-Nov-16 00:33N 34°14' E 135°07'0 0.0
2014-Nov-15 23:33N 34°14' E 135°07'0 0.0
2014-Nov-15 22:33N 34°14' E 135°07'0 0.0
2014-Nov-15 21:33N 34°14' E 135°07'0 0.0
2014-Nov-15 20:33N 34°14' E 135°07'0 0.0
2014-Nov-15 19:33N 34°14' E 135°07'2 2.4
2014-Nov-15 18:33N 34°14' E 135°04'1313.2
2014-Nov-15 17:33N 34°11' E 134°48'4 0.1
2014-Nov-13 15:07N 34°08' E 134°45'254 9.1
2014-Nov-12 11:17N 35°11' E 139°45'810.6
2014-Nov-12 10:33N 35°19' E 139°43'1010.4
2014-Nov-12 09:33N 35°28' E 139°49'9 2.9
2014-Nov-12 06:20N 35°37' E 139°49'0 0.0
2014-Nov-12 05:23N 35°37' E 139°49'0 0.0
2014-Nov-12 04:32N 35°37' E 139°49'0 0.0
2014-Nov-12 03:30N 35°37' E 139°49'2 2.4
2014-Nov-12 02:32N 35°36' E 139°50'5 5.4
2014-Nov-12 01:33N 35°30' E 139°50'1 1.3
2014-Nov-12 00:33N 35°29' E 139°49'1212.4
2014-Nov-11 23:33N 35°17' E 139°45'  
Track history (hours):
 
Tides and Currents Weather Stations Pressure Air Temp Water Temp Dewpoint Dewpoint Depression Visibility Wind Speed Wind Dir Waves Ship Positions

Suehiro Maru No.8

Last reported at 2014-Nov-20 02:22 UTC. Time now 2014-Nov-23 03:38 UTC.
Position N 34°07' E 134°46'.

Length 88 m; draft 3.8 m.

Type: Cargo ship. MMSI: 431400446.

Date/timePositionNaut miles runAvg speedWind from/ knotsBaromVisibWave heightAir tempDewpointWater temp
2014-Nov-20 02:22N 34°07' E 134°46'  
2014-Nov-16 23:11N 33°59' E 135°02'812.5
2014-Nov-16 22:33N 34°07' E 135°03'9 8.7
2014-Nov-16 21:33N 34°15' E 135°07'0 0.0
2014-Nov-16 20:33N 34°15' E 135°07'0 0.0
2014-Nov-16 19:33N 34°15' E 135°07'0 0.0
2014-Nov-16 18:32N 34°15' E 135°07'0 0.0
2014-Nov-16 17:33N 34°15' E 135°07'0 0.0
2014-Nov-16 16:33N 34°15' E 135°07'0 0.0
2014-Nov-16 15:34N 34°15' E 135°07'0 0.0
2014-Nov-16 14:33N 34°15' E 135°07'0 0.0
2014-Nov-16 13:33N 34°15' E 135°07'0 0.0
2014-Nov-16 12:33N 34°15' E 135°07'0 0.0
2014-Nov-16 11:33N 34°15' E 135°07'0 0.0
2014-Nov-16 10:33N 34°15' E 135°07'0 0.0
2014-Nov-16 09:33N 34°15' E 135°07'0 0.0
2014-Nov-16 08:33N 34°15' E 135°07'0 0.0
2014-Nov-16 07:33N 34°15' E 135°07'0 0.0
2014-Nov-16 06:33N 34°15' E 135°07'0 0.3
2014-Nov-16 05:33N 34°14' E 135°07'0 0.2
2014-Nov-16 04:33N 34°14' E 135°07'0 0.0
2014-Nov-16 03:33N 34°14' E 135°07'0 0.0
2014-Nov-16 02:33N 34°14' E 135°07'0 0.0
2014-Nov-16 01:33N 34°14' E 135°07'0 0.0
2014-Nov-16 00:33N 34°14' E 135°07'0 0.0
2014-Nov-15 23:33N 34°14' E 135°07'0 0.0
2014-Nov-15 22:33N 34°14' E 135°07'0 0.0
2014-Nov-15 21:33N 34°14' E 135°07'0 0.0
2014-Nov-15 20:33N 34°14' E 135°07'0 0.0
2014-Nov-15 19:33N 34°14' E 135°07'2 2.4
2014-Nov-15 18:33N 34°14' E 135°04'1313.2
2014-Nov-15 17:33N 34°11' E 134°48'4 0.1
2014-Nov-13 15:07N 34°08' E 134°45'254 9.1
2014-Nov-12 11:17N 35°11' E 139°45'810.6
2014-Nov-12 10:33N 35°19' E 139°43'1010.4
2014-Nov-12 09:33N 35°28' E 139°49'9 2.9
2014-Nov-12 06:20N 35°37' E 139°49'0 0.0
2014-Nov-12 05:23N 35°37' E 139°49'0 0.0
2014-Nov-12 04:32N 35°37' E 139°49'0 0.0
2014-Nov-12 03:30N 35°37' E 139°49'2 2.4
2014-Nov-12 02:32N 35°36' E 139°50'5 5.4
2014-Nov-12 01:33N 35°30' E 139°50'1 1.3
2014-Nov-12 00:33N 35°29' E 139°49'1212.4
2014-Nov-11 23:33N 35°17' E 139°45'  

Dump ship's entire track history